sensor_id;sensor_type;location;lat;lon;timestamp;P1;durP1;ratioP1;P2;durP2;ratioP2
5981;SDS011;3018;48.730;9.336;2023-01-19T00:01:55;13.98;;;8.45;;
5981;SDS011;3018;48.730;9.336;2023-01-19T00:04:21;11.90;;;9.10;;
5981;SDS011;3018;48.730;9.336;2023-01-19T00:06:47;11.18;;;9.27;;
5981;SDS011;3018;48.730;9.336;2023-01-19T00:09:14;9.25;;;8.02;;
5981;SDS011;3018;48.730;9.336;2023-01-19T00:11:40;11.27;;;8.45;;
5981;SDS011;3018;48.730;9.336;2023-01-19T00:14:06;12.13;;;9.15;;
5981;SDS011;3018;48.730;9.336;2023-01-19T00:16:34;9.48;;;8.48;;
5981;SDS011;3018;48.730;9.336;2023-01-19T00:19:00;11.43;;;9.85;;
5981;SDS011;3018;48.730;9.336;2023-01-19T00:21:26;10.40;;;8.95;;
5981;SDS011;3018;48.730;9.336;2023-01-19T00:23:53;11.13;;;9.45;;
5981;SDS011;3018;48.730;9.336;2023-01-19T00:26:19;11.90;;;9.98;;
5981;SDS011;3018;48.730;9.336;2023-01-19T00:28:47;13.07;;;10.07;;
5981;SDS011;3018;48.730;9.336;2023-01-19T00:31:14;11.90;;;9.55;;
5981;SDS011;3018;48.730;9.336;2023-01-19T00:33:41;12.38;;;9.73;;
5981;SDS011;3018;48.730;9.336;2023-01-19T00:36:08;12.50;;;9.45;;
5981;SDS011;3018;48.730;9.336;2023-01-19T00:38:35;13.00;;;9.50;;
5981;SDS011;3018;48.730;9.336;2023-01-19T00:41:01;11.95;;;9.02;;
5981;SDS011;3018;48.730;9.336;2023-01-19T00:43:27;11.13;;;9.07;;
5981;SDS011;3018;48.730;9.336;2023-01-19T00:45:52;10.70;;;9.35;;
5981;SDS011;3018;48.730;9.336;2023-01-19T00:48:19;13.57;;;9.98;;
5981;SDS011;3018;48.730;9.336;2023-01-19T00:50:46;10.65;;;9.30;;
5981;SDS011;3018;48.730;9.336;2023-01-19T00:53:13;13.80;;;9.88;;
5981;SDS011;3018;48.730;9.336;2023-01-19T00:55:39;14.13;;;10.30;;
5981;SDS011;3018;48.730;9.336;2023-01-19T00:58:05;11.75;;;9.68;;
5981;SDS011;3018;48.730;9.336;2023-01-19T01:00:32;10.95;;;9.32;;
5981;SDS011;3018;48.730;9.336;2023-01-19T01:02:58;11.25;;;9.02;;
5981;SDS011;3018;48.730;9.336;2023-01-19T01:05:25;10.80;;;9.35;;
5981;SDS011;3018;48.730;9.336;2023-01-19T01:07:52;12.63;;;9.25;;
5981;SDS011;3018;48.730;9.336;2023-01-19T01:10:20;15.63;;;9.07;;
5981;SDS011;3018;48.730;9.336;2023-01-19T01:12:46;11.82;;;9.15;;
5981;SDS011;3018;48.730;9.336;2023-01-19T01:15:13;10.60;;;9.00;;
5981;SDS011;3018;48.730;9.336;2023-01-19T01:17:40;11.10;;;8.77;;
5981;SDS011;3018;48.730;9.336;2023-01-19T01:20:11;11.45;;;9.10;;
5981;SDS011;3018;48.730;9.336;2023-01-19T01:22:41;11.80;;;9.52;;
5981;SDS011;3018;48.730;9.336;2023-01-19T01:25:10;9.63;;;8.57;;
5981;SDS011;3018;48.730;9.336;2023-01-19T01:27:37;13.73;;;8.77;;
5981;SDS011;3018;48.730;9.336;2023-01-19T01:30:03;10.88;;;9.50;;
5981;SDS011;3018;48.730;9.336;2023-01-19T01:32:30;12.45;;;8.82;;
5981;SDS011;3018;48.730;9.336;2023-01-19T01:34:56;9.88;;;8.57;;
5981;SDS011;3018;48.730;9.336;2023-01-19T01:37:22;10.35;;;8.13;;
5981;SDS011;3018;48.730;9.336;2023-01-19T01:39:49;9.35;;;8.30;;
5981;SDS011;3018;48.730;9.336;2023-01-19T01:42:17;12.63;;;9.45;;
5981;SDS011;3018;48.730;9.336;2023-01-19T01:44:46;10.82;;;8.75;;
5981;SDS011;3018;48.730;9.336;2023-01-19T01:47:17;11.57;;;8.18;;
5981;SDS011;3018;48.730;9.336;2023-01-19T01:49:47;9.30;;;8.40;;
5981;SDS011;3018;48.730;9.336;2023-01-19T01:52:14;14.32;;;8.93;;
5981;SDS011;3018;48.730;9.336;2023-01-19T01:54:41;11.95;;;8.93;;
5981;SDS011;3018;48.730;9.336;2023-01-19T01:57:07;11.18;;;8.82;;
5981;SDS011;3018;48.730;9.336;2023-01-19T01:59:38;10.55;;;9.02;;
5981;SDS011;3018;48.730;9.336;2023-01-19T02:02:06;9.90;;;8.68;;
5981;SDS011;3018;48.730;9.336;2023-01-19T02:04:52;12.90;;;9.02;;
5981;SDS011;3018;48.730;9.336;2023-01-19T02:07:21;13.25;;;9.13;;
5981;SDS011;3018;48.730;9.336;2023-01-19T02:10:07;9.98;;;8.77;;
5981;SDS011;3018;48.730;9.336;2023-01-19T02:12:51;13.02;;;8.82;;
5981;SDS011;3018;48.730;9.336;2023-01-19T02:15:36;9.82;;;8.13;;
5981;SDS011;3018;48.730;9.336;2023-01-19T02:18:02;11.43;;;9.48;;
5981;SDS011;3018;48.730;9.336;2023-01-19T02:20:29;13.10;;;9.00;;
5981;SDS011;3018;48.730;9.336;2023-01-19T02:22:56;12.27;;;9.00;;
5981;SDS011;3018;48.730;9.336;2023-01-19T02:25:28;11.85;;;9.05;;
5981;SDS011;3018;48.730;9.336;2023-01-19T02:27:54;12.52;;;8.98;;
5981;SDS011;3018;48.730;9.336;2023-01-19T02:30:20;12.70;;;9.80;;
5981;SDS011;3018;48.730;9.336;2023-01-19T02:32:47;10.98;;;9.27;;
5981;SDS011;3018;48.730;9.336;2023-01-19T02:38:16;10.52;;;8.98;;
5981;SDS011;3018;48.730;9.336;2023-01-19T02:40:45;10.48;;;9.30;;
5981;SDS011;3018;48.730;9.336;2023-01-19T02:43:12;14.82;;;10.43;;
5981;SDS011;3018;48.730;9.336;2023-01-19T02:45:39;12.32;;;8.95;;
5981;SDS011;3018;48.730;9.336;2023-01-19T02:48:07;12.77;;;9.25;;
5981;SDS011;3018;48.730;9.336;2023-01-19T02:50:37;11.88;;;9.70;;
5981;SDS011;3018;48.730;9.336;2023-01-19T02:53:09;15.63;;;9.30;;
5981;SDS011;3018;48.730;9.336;2023-01-19T02:55:37;11.38;;;9.35;;
5981;SDS011;3018;48.730;9.336;2023-01-19T02:58:06;13.13;;;9.75;;
5981;SDS011;3018;48.730;9.336;2023-01-19T03:00:37;12.30;;;9.57;;
5981;SDS011;3018;48.730;9.336;2023-01-19T03:03:10;12.43;;;9.30;;
5981;SDS011;3018;48.730;9.336;2023-01-19T03:05:49;10.40;;;8.63;;
5981;SDS011;3018;48.730;9.336;2023-01-19T03:08:21;10.05;;;8.57;;
5981;SDS011;3018;48.730;9.336;2023-01-19T03:10:50;10.35;;;8.88;;
5981;SDS011;3018;48.730;9.336;2023-01-19T03:13:20;12.50;;;9.07;;
5981;SDS011;3018;48.730;9.336;2023-01-19T03:15:51;14.65;;;9.15;;
5981;SDS011;3018;48.730;9.336;2023-01-19T03:18:19;9.50;;;8.40;;
5981;SDS011;3018;48.730;9.336;2023-01-19T03:20:46;11.73;;;9.18;;
5981;SDS011;3018;48.730;9.336;2023-01-19T03:23:15;15.45;;;8.63;;
5981;SDS011;3018;48.730;9.336;2023-01-19T03:25:42;11.63;;;8.68;;
5981;SDS011;3018;48.730;9.336;2023-01-19T03:28:09;11.93;;;8.80;;
5981;SDS011;3018;48.730;9.336;2023-01-19T03:30:39;12.13;;;8.90;;
5981;SDS011;3018;48.730;9.336;2023-01-19T03:33:10;12.30;;;8.50;;
5981;SDS011;3018;48.730;9.336;2023-01-19T03:35:38;12.18;;;8.63;;
5981;SDS011;3018;48.730;9.336;2023-01-19T03:38:08;11.45;;;8.20;;
5981;SDS011;3018;48.730;9.336;2023-01-19T03:40:37;11.68;;;8.73;;
5981;SDS011;3018;48.730;9.336;2023-01-19T03:43:04;12.35;;;9.10;;
5981;SDS011;3018;48.730;9.336;2023-01-19T03:45:30;10.50;;;8.57;;
5981;SDS011;3018;48.730;9.336;2023-01-19T03:47:59;13.77;;;9.05;;
5981;SDS011;3018;48.730;9.336;2023-01-19T03:50:26;12.10;;;9.07;;
5981;SDS011;3018;48.730;9.336;2023-01-19T03:53:00;12.02;;;9.80;;
5981;SDS011;3018;48.730;9.336;2023-01-19T03:55:26;14.27;;;9.50;;
5981;SDS011;3018;48.730;9.336;2023-01-19T03:57:53;12.60;;;10.32;;
5981;SDS011;3018;48.730;9.336;2023-01-19T04:00:19;12.68;;;9.25;;
5981;SDS011;3018;48.730;9.336;2023-01-19T04:02:45;11.40;;;9.73;;
5981;SDS011;3018;48.730;9.336;2023-01-19T04:05:13;10.65;;;9.52;;
5981;SDS011;3018;48.730;9.336;2023-01-19T04:07:39;10.65;;;9.38;;
5981;SDS011;3018;48.730;9.336;2023-01-19T04:10:06;11.57;;;8.95;;
5981;SDS011;3018;48.730;9.336;2023-01-19T04:12:36;13.63;;;9.82;;
5981;SDS011;3018;48.730;9.336;2023-01-19T04:15:03;16.85;;;12.20;;
5981;SDS011;3018;48.730;9.336;2023-01-19T04:17:30;16.05;;;10.75;;
5981;SDS011;3018;48.730;9.336;2023-01-19T04:19:56;12.93;;;10.48;;
5981;SDS011;3018;48.730;9.336;2023-01-19T04:22:23;14.43;;;10.68;;
5981;SDS011;3018;48.730;9.336;2023-01-19T04:24:50;13.18;;;10.00;;
5981;SDS011;3018;48.730;9.336;2023-01-19T04:27:16;13.65;;;10.18;;
5981;SDS011;3018;48.730;9.336;2023-01-19T04:29:43;14.88;;;9.75;;
5981;SDS011;3018;48.730;9.336;2023-01-19T04:32:09;10.98;;;9.75;;
5981;SDS011;3018;48.730;9.336;2023-01-19T04:34:35;15.27;;;10.18;;
5981;SDS011;3018;48.730;9.336;2023-01-19T04:37:01;12.05;;;10.48;;
5981;SDS011;3018;48.730;9.336;2023-01-19T04:39:29;11.35;;;9.85;;
5981;SDS011;3018;48.730;9.336;2023-01-19T04:41:56;14.27;;;10.80;;
5981;SDS011;3018;48.730;9.336;2023-01-19T04:44:22;12.50;;;10.25;;
5981;SDS011;3018;48.730;9.336;2023-01-19T04:46:48;14.38;;;10.43;;
5981;SDS011;3018;48.730;9.336;2023-01-19T04:49:15;13.10;;;9.65;;
5981;SDS011;3018;48.730;9.336;2023-01-19T04:51:41;15.95;;;10.63;;
5981;SDS011;3018;48.730;9.336;2023-01-19T04:54:08;15.13;;;10.50;;
5981;SDS011;3018;48.730;9.336;2023-01-19T04:56:35;12.98;;;10.77;;
5981;SDS011;3018;48.730;9.336;2023-01-19T04:59:02;14.25;;;10.15;;
5981;SDS011;3018;48.730;9.336;2023-01-19T05:01:28;13.75;;;10.35;;
5981;SDS011;3018;48.730;9.336;2023-01-19T05:03:57;13.32;;;10.50;;
5981;SDS011;3018;48.730;9.336;2023-01-19T05:06:23;11.63;;;9.65;;
5981;SDS011;3018;48.730;9.336;2023-01-19T05:08:49;12.98;;;10.75;;
5981;SDS011;3018;48.730;9.336;2023-01-19T05:11:16;12.10;;;9.40;;
5981;SDS011;3018;48.730;9.336;2023-01-19T05:13:43;11.98;;;9.35;;
5981;SDS011;3018;48.730;9.336;2023-01-19T05:16:09;11.70;;;9.20;;
5981;SDS011;3018;48.730;9.336;2023-01-19T05:18:37;11.68;;;9.52;;
5981;SDS011;3018;48.730;9.336;2023-01-19T05:21:04;10.30;;;9.02;;
5981;SDS011;3018;48.730;9.336;2023-01-19T05:23:31;10.88;;;9.15;;
5981;SDS011;3018;48.730;9.336;2023-01-19T05:25:57;12.85;;;10.38;;
5981;SDS011;3018;48.730;9.336;2023-01-19T05:28:24;12.32;;;10.05;;
5981;SDS011;3018;48.730;9.336;2023-01-19T05:30:52;14.73;;;11.18;;
5981;SDS011;3018;48.730;9.336;2023-01-19T05:33:19;12.52;;;10.48;;
5981;SDS011;3018;48.730;9.336;2023-01-19T05:35:45;10.98;;;9.27;;
5981;SDS011;3018;48.730;9.336;2023-01-19T05:38:11;13.02;;;9.52;;
5981;SDS011;3018;48.730;9.336;2023-01-19T05:40:38;12.25;;;9.95;;
5981;SDS011;3018;48.730;9.336;2023-01-19T05:43:04;15.68;;;10.25;;
5981;SDS011;3018;48.730;9.336;2023-01-19T05:45:30;10.73;;;9.40;;
5981;SDS011;3018;48.730;9.336;2023-01-19T05:47:58;14.35;;;9.65;;
5981;SDS011;3018;48.730;9.336;2023-01-19T05:50:24;12.70;;;9.05;;
5981;SDS011;3018;48.730;9.336;2023-01-19T05:52:51;13.73;;;9.90;;
5981;SDS011;3018;48.730;9.336;2023-01-19T05:55:18;12.13;;;9.68;;
5981;SDS011;3018;48.730;9.336;2023-01-19T05:57:44;10.48;;;8.77;;
5981;SDS011;3018;48.730;9.336;2023-01-19T06:00:11;11.35;;;9.18;;
5981;SDS011;3018;48.730;9.336;2023-01-19T06:02:37;10.25;;;8.55;;
5981;SDS011;3018;48.730;9.336;2023-01-19T06:05:05;11.73;;;9.15;;
5981;SDS011;3018;48.730;9.336;2023-01-19T06:07:31;11.48;;;9.48;;
5981;SDS011;3018;48.730;9.336;2023-01-19T06:09:58;32.17;;;15.93;;
5981;SDS011;3018;48.730;9.336;2023-01-19T06:12:24;37.55;;;16.77;;
5981;SDS011;3018;48.730;9.336;2023-01-19T06:14:50;22.60;;;11.48;;
5981;SDS011;3018;48.730;9.336;2023-01-19T06:17:17;23.00;;;12.45;;
5981;SDS011;3018;48.730;9.336;2023-01-19T06:19:44;36.05;;;14.90;;
5981;SDS011;3018;48.730;9.336;2023-01-19T06:22:11;52.42;;;18.13;;
5981;SDS011;3018;48.730;9.336;2023-01-19T06:24:38;21.45;;;11.60;;
5981;SDS011;3018;48.730;9.336;2023-01-19T06:27:04;69.38;;;21.77;;
5981;SDS011;3018;48.730;9.336;2023-01-19T06:29:30;67.28;;;22.65;;
5981;SDS011;3018;48.730;9.336;2023-01-19T06:31:58;73.88;;;25.55;;
5981;SDS011;3018;48.730;9.336;2023-01-19T06:34:24;50.72;;;21.38;;
5981;SDS011;3018;48.730;9.336;2023-01-19T06:36:52;43.78;;;18.52;;
5981;SDS011;3018;48.730;9.336;2023-01-19T06:39:20;37.97;;;16.38;;
5981;SDS011;3018;48.730;9.336;2023-01-19T06:41:46;28.63;;;14.93;;
5981;SDS011;3018;48.730;9.336;2023-01-19T06:44:12;23.80;;;13.48;;
5981;SDS011;3018;48.730;9.336;2023-01-19T06:46:39;21.23;;;12.88;;
5981;SDS011;3018;48.730;9.336;2023-01-19T06:49:05;17.58;;;12.20;;
5981;SDS011;3018;48.730;9.336;2023-01-19T06:51:32;24.08;;;12.77;;
5981;SDS011;3018;48.730;9.336;2023-01-19T06:53:58;19.02;;;12.32;;
5981;SDS011;3018;48.730;9.336;2023-01-19T06:56:25;17.35;;;11.30;;
5981;SDS011;3018;48.730;9.336;2023-01-19T06:58:52;15.45;;;10.68;;
5981;SDS011;3018;48.730;9.336;2023-01-19T07:01:19;13.07;;;9.57;;
5981;SDS011;3018;48.730;9.336;2023-01-19T07:03:45;14.57;;;9.30;;
5981;SDS011;3018;48.730;9.336;2023-01-19T07:06:11;14.52;;;9.90;;
5981;SDS011;3018;48.730;9.336;2023-01-19T07:08:38;15.48;;;10.65;;
5981;SDS011;3018;48.730;9.336;2023-01-19T07:11:05;11.15;;;9.27;;
5981;SDS011;3018;48.730;9.336;2023-01-19T07:13:33;10.98;;;9.05;;
5981;SDS011;3018;48.730;9.336;2023-01-19T07:16:02;13.38;;;9.35;;
5981;SDS011;3018;48.730;9.336;2023-01-19T07:18:29;12.10;;;10.13;;
5981;SDS011;3018;48.730;9.336;2023-01-19T07:20:55;12.60;;;8.50;;
5981;SDS011;3018;48.730;9.336;2023-01-19T07:23:22;16.35;;;8.98;;
5981;SDS011;3018;48.730;9.336;2023-01-19T07:25:48;10.65;;;8.90;;
5981;SDS011;3018;48.730;9.336;2023-01-19T07:28:14;12.55;;;9.57;;
5981;SDS011;3018;48.730;9.336;2023-01-19T07:30:42;12.27;;;9.45;;
5981;SDS011;3018;48.730;9.336;2023-01-19T07:33:10;11.50;;;9.38;;
5981;SDS011;3018;48.730;9.336;2023-01-19T07:35:36;12.93;;;9.52;;
5981;SDS011;3018;48.730;9.336;2023-01-19T07:38:02;13.10;;;8.52;;
5981;SDS011;3018;48.730;9.336;2023-01-19T07:40:29;13.73;;;9.65;;
5981;SDS011;3018;48.730;9.336;2023-01-19T07:42:55;15.80;;;10.68;;
5981;SDS011;3018;48.730;9.336;2023-01-19T07:45:21;13.07;;;9.98;;
5981;SDS011;3018;48.730;9.336;2023-01-19T07:47:49;17.63;;;9.82;;
5981;SDS011;3018;48.730;9.336;2023-01-19T07:50:16;14.02;;;10.60;;
5981;SDS011;3018;48.730;9.336;2023-01-19T07:52:45;16.02;;;10.63;;
5981;SDS011;3018;48.730;9.336;2023-01-19T07:55:11;17.30;;;10.93;;
5981;SDS011;3018;48.730;9.336;2023-01-19T07:57:37;14.02;;;10.80;;
5981;SDS011;3018;48.730;9.336;2023-01-19T08:00:04;15.25;;;10.30;;
5981;SDS011;3018;48.730;9.336;2023-01-19T08:02:30;14.70;;;10.13;;
5981;SDS011;3018;48.730;9.336;2023-01-19T08:04:59;12.90;;;10.05;;
5981;SDS011;3018;48.730;9.336;2023-01-19T08:07:25;15.02;;;10.98;;
5981;SDS011;3018;48.730;9.336;2023-01-19T08:09:51;14.15;;;10.40;;
5981;SDS011;3018;48.730;9.336;2023-01-19T08:12:18;17.48;;;11.35;;
5981;SDS011;3018;48.730;9.336;2023-01-19T08:14:44;16.60;;;10.50;;
5981;SDS011;3018;48.730;9.336;2023-01-19T08:17:11;15.82;;;10.95;;
5981;SDS011;3018;48.730;9.336;2023-01-19T08:19:37;15.43;;;10.65;;
5981;SDS011;3018;48.730;9.336;2023-01-19T08:22:05;18.77;;;11.32;;
5981;SDS011;3018;48.730;9.336;2023-01-19T08:24:31;14.18;;;10.60;;
5981;SDS011;3018;48.730;9.336;2023-01-19T08:26:58;14.52;;;10.75;;
5981;SDS011;3018;48.730;9.336;2023-01-19T08:29:24;16.02;;;10.15;;
5981;SDS011;3018;48.730;9.336;2023-01-19T08:31:50;13.35;;;9.68;;
5981;SDS011;3018;48.730;9.336;2023-01-19T08:34:19;13.07;;;9.57;;
5981;SDS011;3018;48.730;9.336;2023-01-19T08:36:45;12.88;;;9.00;;
5981;SDS011;3018;48.730;9.336;2023-01-19T08:39:13;12.20;;;8.23;;
5981;SDS011;3018;48.730;9.336;2023-01-19T08:41:39;10.43;;;8.23;;
5981;SDS011;3018;48.730;9.336;2023-01-19T08:44:06;10.90;;;7.88;;
5981;SDS011;3018;48.730;9.336;2023-01-19T08:46:32;11.98;;;7.32;;
5981;SDS011;3018;48.730;9.336;2023-01-19T08:48:58;9.30;;;7.43;;
5981;SDS011;3018;48.730;9.336;2023-01-19T08:51:24;10.18;;;7.47;;
5981;SDS011;3018;48.730;9.336;2023-01-19T08:53:50;12.60;;;7.57;;
5981;SDS011;3018;48.730;9.336;2023-01-19T08:56:18;10.32;;;7.68;;
5981;SDS011;3018;48.730;9.336;2023-01-19T08:58:44;8.32;;;7.45;;
5981;SDS011;3018;48.730;9.336;2023-01-19T09:01:11;9.68;;;7.03;;
5981;SDS011;3018;48.730;9.336;2023-01-19T09:03:38;10.75;;;7.45;;
5981;SDS011;3018;48.730;9.336;2023-01-19T09:06:05;10.50;;;6.45;;
5981;SDS011;3018;48.730;9.336;2023-01-19T09:08:31;11.55;;;6.72;;
5981;SDS011;3018;48.730;9.336;2023-01-19T09:10:58;12.48;;;6.97;;
5981;SDS011;3018;48.730;9.336;2023-01-19T09:13:25;8.32;;;7.43;;
5981;SDS011;3018;48.730;9.336;2023-01-19T09:15:52;7.90;;;6.68;;
5981;SDS011;3018;48.730;9.336;2023-01-19T09:18:19;12.02;;;8.35;;
5981;SDS011;3018;48.730;9.336;2023-01-19T09:20:46;11.10;;;7.15;;
5981;SDS011;3018;48.730;9.336;2023-01-19T09:23:13;6.97;;;6.03;;
5981;SDS011;3018;48.730;9.336;2023-01-19T09:25:40;8.75;;;7.22;;
5981;SDS011;3018;48.730;9.336;2023-01-19T09:28:08;8.43;;;6.40;;
5981;SDS011;3018;48.730;9.336;2023-01-19T09:30:36;9.63;;;6.55;;
5981;SDS011;3018;48.730;9.336;2023-01-19T09:33:03;7.50;;;6.78;;
5981;SDS011;3018;48.730;9.336;2023-01-19T09:35:31;9.25;;;6.95;;
5981;SDS011;3018;48.730;9.336;2023-01-19T09:37:58;10.57;;;7.03;;
5981;SDS011;3018;48.730;9.336;2023-01-19T09:40:26;10.02;;;7.57;;
5981;SDS011;3018;48.730;9.336;2023-01-19T09:42:54;11.05;;;7.05;;
5981;SDS011;3018;48.730;9.336;2023-01-19T09:45:21;7.03;;;6.32;;
5981;SDS011;3018;48.730;9.336;2023-01-19T09:47:52;9.98;;;7.43;;
5981;SDS011;3018;48.730;9.336;2023-01-19T09:50:19;9.63;;;7.13;;
5981;SDS011;3018;48.730;9.336;2023-01-19T09:52:51;9.00;;;6.20;;
5981;SDS011;3018;48.730;9.336;2023-01-19T09:55:21;7.30;;;6.45;;
5981;SDS011;3018;48.730;9.336;2023-01-19T09:57:47;8.05;;;7.20;;
5981;SDS011;3018;48.730;9.336;2023-01-19T10:00:14;8.23;;;7.22;;
5981;SDS011;3018;48.730;9.336;2023-01-19T10:02:41;8.63;;;7.07;;
5981;SDS011;3018;48.730;9.336;2023-01-19T10:05:13;8.75;;;6.30;;
5981;SDS011;3018;48.730;9.336;2023-01-19T10:07:55;10.07;;;6.55;;
5981;SDS011;3018;48.730;9.336;2023-01-19T10:10:23;7.95;;;6.40;;
5981;SDS011;3018;48.730;9.336;2023-01-19T10:12:56;6.53;;;5.90;;
5981;SDS011;3018;48.730;9.336;2023-01-19T10:15:28;8.85;;;5.90;;
5981;SDS011;3018;48.730;9.336;2023-01-19T10:18:02;7.55;;;6.32;;
5981;SDS011;3018;48.730;9.336;2023-01-19T10:20:32;6.60;;;6.03;;
5981;SDS011;3018;48.730;9.336;2023-01-19T10:23:00;8.05;;;5.05;;
5981;SDS011;3018;48.730;9.336;2023-01-19T10:25:26;7.55;;;5.85;;
5981;SDS011;3018;48.730;9.336;2023-01-19T10:27:53;5.82;;;5.10;;
5981;SDS011;3018;48.730;9.336;2023-01-19T10:30:20;10.82;;;5.90;;
5981;SDS011;3018;48.730;9.336;2023-01-19T10:32:47;6.03;;;4.57;;
5981;SDS011;3018;48.730;9.336;2023-01-19T10:35:18;5.47;;;4.97;;
5981;SDS011;3018;48.730;9.336;2023-01-19T10:37:49;6.18;;;5.00;;
5981;SDS011;3018;48.730;9.336;2023-01-19T10:40:18;5.25;;;4.85;;
5981;SDS011;3018;48.730;9.336;2023-01-19T10:42:45;5.78;;;4.60;;
5981;SDS011;3018;48.730;9.336;2023-01-19T10:45:13;4.57;;;4.28;;
5981;SDS011;3018;48.730;9.336;2023-01-19T10:47:40;6.95;;;4.68;;
5981;SDS011;3018;48.730;9.336;2023-01-19T10:50:20;5.10;;;4.57;;
5981;SDS011;3018;48.730;9.336;2023-01-19T10:52:49;4.47;;;4.18;;
5981;SDS011;3018;48.730;9.336;2023-01-19T10:55:22;6.60;;;4.85;;
5981;SDS011;3018;48.730;9.336;2023-01-19T10:57:49;8.95;;;4.72;;
5981;SDS011;3018;48.730;9.336;2023-01-19T11:00:27;5.43;;;4.90;;
5981;SDS011;3018;48.730;9.336;2023-01-19T11:02:54;6.28;;;4.63;;
5981;SDS011;3018;48.730;9.336;2023-01-19T11:05:21;6.82;;;4.80;;
5981;SDS011;3018;48.730;9.336;2023-01-19T11:07:48;8.88;;;5.15;;
5981;SDS011;3018;48.730;9.336;2023-01-19T11:10:22;6.60;;;4.53;;
5981;SDS011;3018;48.730;9.336;2023-01-19T11:12:59;5.65;;;4.85;;
5981;SDS011;3018;48.730;9.336;2023-01-19T11:15:28;6.15;;;5.05;;
5981;SDS011;3018;48.730;9.336;2023-01-19T11:17:55;6.57;;;4.63;;
5981;SDS011;3018;48.730;9.336;2023-01-19T11:20:22;6.18;;;4.65;;
5981;SDS011;3018;48.730;9.336;2023-01-19T11:23:02;6.13;;;4.70;;
5981;SDS011;3018;48.730;9.336;2023-01-19T11:25:30;8.00;;;4.68;;
5981;SDS011;3018;48.730;9.336;2023-01-19T11:27:57;5.53;;;4.20;;
5981;SDS011;3018;48.730;9.336;2023-01-19T11:30:24;4.97;;;4.47;;
5981;SDS011;3018;48.730;9.336;2023-01-19T11:32:50;5.65;;;3.55;;
5981;SDS011;3018;48.730;9.336;2023-01-19T11:35:33;4.97;;;4.38;;
5981;SDS011;3018;48.730;9.336;2023-01-19T11:38:14;6.05;;;4.35;;
5981;SDS011;3018;48.730;9.336;2023-01-19T11:40:44;4.55;;;4.25;;
5981;SDS011;3018;48.730;9.336;2023-01-19T11:43:11;6.05;;;4.10;;
5981;SDS011;3018;48.730;9.336;2023-01-19T11:45:38;5.00;;;4.50;;
5981;SDS011;3018;48.730;9.336;2023-01-19T11:48:05;6.55;;;4.18;;
5981;SDS011;3018;48.730;9.336;2023-01-19T11:50:32;4.40;;;4.03;;
5981;SDS011;3018;48.730;9.336;2023-01-19T11:53:00;4.43;;;4.13;;
5981;SDS011;3018;48.730;9.336;2023-01-19T11:55:31;5.45;;;4.50;;
5981;SDS011;3018;48.730;9.336;2023-01-19T11:58:01;4.45;;;4.07;;
5981;SDS011;3018;48.730;9.336;2023-01-19T12:00:31;5.47;;;3.97;;
5981;SDS011;3018;48.730;9.336;2023-01-19T12:02:59;6.13;;;4.55;;
5981;SDS011;3018;48.730;9.336;2023-01-19T12:05:29;6.25;;;4.38;;
5981;SDS011;3018;48.730;9.336;2023-01-19T12:07:57;8.18;;;4.10;;
5981;SDS011;3018;48.730;9.336;2023-01-19T12:10:25;7.35;;;4.45;;
5981;SDS011;3018;48.730;9.336;2023-01-19T12:12:53;5.63;;;4.82;;
5981;SDS011;3018;48.730;9.336;2023-01-19T12:15:22;4.43;;;4.13;;
5981;SDS011;3018;48.730;9.336;2023-01-19T12:17:50;9.77;;;4.38;;
5981;SDS011;3018;48.730;9.336;2023-01-19T12:20:20;5.07;;;3.75;;
5981;SDS011;3018;48.730;9.336;2023-01-19T12:22:50;5.57;;;3.90;;
5981;SDS011;3018;48.730;9.336;2023-01-19T12:25:18;4.22;;;3.92;;
5981;SDS011;3018;48.730;9.336;2023-01-19T12:27:45;4.47;;;3.78;;
5981;SDS011;3018;48.730;9.336;2023-01-19T12:30:15;6.88;;;4.05;;
5981;SDS011;3018;48.730;9.336;2023-01-19T12:32:43;5.78;;;4.03;;
5981;SDS011;3018;48.730;9.336;2023-01-19T12:37:50;4.00;;;3.70;;
5981;SDS011;3018;48.730;9.336;2023-01-19T12:40:18;5.65;;;4.13;;
5981;SDS011;3018;48.730;9.336;2023-01-19T12:42:47;3.85;;;3.58;;
5981;SDS011;3018;48.730;9.336;2023-01-19T12:45:14;6.85;;;3.88;;
5981;SDS011;3018;48.730;9.336;2023-01-19T12:47:50;4.85;;;4.40;;
5981;SDS011;3018;48.730;9.336;2023-01-19T12:50:16;5.63;;;4.20;;
5981;SDS011;3018;48.730;9.336;2023-01-19T12:52:47;5.07;;;4.22;;
5981;SDS011;3018;48.730;9.336;2023-01-19T12:55:17;4.35;;;3.95;;
5981;SDS011;3018;48.730;9.336;2023-01-19T12:57:47;4.40;;;4.00;;
5981;SDS011;3018;48.730;9.336;2023-01-19T13:00:26;5.30;;;3.95;;
5981;SDS011;3018;48.730;9.336;2023-01-19T13:02:55;6.32;;;4.50;;
5981;SDS011;3018;48.730;9.336;2023-01-19T13:05:23;5.30;;;4.80;;
5981;SDS011;3018;48.730;9.336;2023-01-19T13:13:21;5.97;;;3.97;;
5981;SDS011;3018;48.730;9.336;2023-01-19T13:15:47;5.13;;;4.38;;
5981;SDS011;3018;48.730;9.336;2023-01-19T13:18:17;9.25;;;3.90;;
5981;SDS011;3018;48.730;9.336;2023-01-19T13:20:43;3.63;;;3.42;;
5981;SDS011;3018;48.730;9.336;2023-01-19T13:23:19;4.03;;;3.72;;
5981;SDS011;3018;48.730;9.336;2023-01-19T13:26:00;4.70;;;4.30;;
5981;SDS011;3018;48.730;9.336;2023-01-19T13:28:29;4.35;;;3.88;;
5981;SDS011;3018;48.730;9.336;2023-01-19T13:30:57;4.68;;;4.20;;
5981;SDS011;3018;48.730;9.336;2023-01-19T13:33:28;5.13;;;4.35;;
5981;SDS011;3018;48.730;9.336;2023-01-19T13:35:56;4.40;;;4.10;;
5981;SDS011;3018;48.730;9.336;2023-01-19T13:38:24;5.88;;;4.25;;
5981;SDS011;3018;48.730;9.336;2023-01-19T13:40:51;5.75;;;4.13;;
5981;SDS011;3018;48.730;9.336;2023-01-19T13:43:19;6.18;;;4.40;;
5981;SDS011;3018;48.730;9.336;2023-01-19T13:45:47;4.80;;;4.40;;
5981;SDS011;3018;48.730;9.336;2023-01-19T13:48:15;6.22;;;4.15;;
5981;SDS011;3018;48.730;9.336;2023-01-19T13:50:54;5.82;;;4.22;;
5981;SDS011;3018;48.730;9.336;2023-01-19T13:53:21;5.47;;;4.30;;
5981;SDS011;3018;48.730;9.336;2023-01-19T13:55:59;4.55;;;4.15;;
5981;SDS011;3018;48.730;9.336;2023-01-19T13:58:30;4.68;;;4.28;;
5981;SDS011;3018;48.730;9.336;2023-01-19T14:00:56;6.72;;;4.00;;
5981;SDS011;3018;48.730;9.336;2023-01-19T14:03:23;4.95;;;4.20;;
5981;SDS011;3018;48.730;9.336;2023-01-19T14:05:51;6.70;;;4.47;;
5981;SDS011;3018;48.730;9.336;2023-01-19T14:08:18;8.40;;;4.78;;
5981;SDS011;3018;48.730;9.336;2023-01-19T14:10:45;5.78;;;4.82;;
5981;SDS011;3018;48.730;9.336;2023-01-19T14:13:12;7.90;;;5.22;;
5981;SDS011;3018;48.730;9.336;2023-01-19T14:15:39;4.68;;;4.25;;
5981;SDS011;3018;48.730;9.336;2023-01-19T14:18:06;6.03;;;4.78;;
5981;SDS011;3018;48.730;9.336;2023-01-19T14:20:33;10.38;;;5.45;;
5981;SDS011;3018;48.730;9.336;2023-01-19T14:23:02;7.35;;;5.25;;
5981;SDS011;3018;48.730;9.336;2023-01-19T14:25:29;5.13;;;4.60;;
5981;SDS011;3018;48.730;9.336;2023-01-19T14:30:51;6.97;;;5.55;;
5981;SDS011;3018;48.730;9.336;2023-01-19T14:33:38;7.38;;;4.80;;
5981;SDS011;3018;48.730;9.336;2023-01-19T14:36:09;5.88;;;5.28;;
5981;SDS011;3018;48.730;9.336;2023-01-19T14:38:37;5.70;;;5.10;;
5981;SDS011;3018;48.730;9.336;2023-01-19T14:41:03;7.50;;;4.97;;
5981;SDS011;3018;48.730;9.336;2023-01-19T14:43:30;6.47;;;5.32;;
5981;SDS011;3018;48.730;9.336;2023-01-19T14:45:56;5.63;;;5.13;;
5981;SDS011;3018;48.730;9.336;2023-01-19T14:48:22;8.68;;;4.82;;
5981;SDS011;3018;48.730;9.336;2023-01-19T14:50:58;6.78;;;5.28;;
5981;SDS011;3018;48.730;9.336;2023-01-19T14:53:24;5.55;;;4.95;;
5981;SDS011;3018;48.730;9.336;2023-01-19T14:55:54;7.32;;;5.00;;
5981;SDS011;3018;48.730;9.336;2023-01-19T14:58:22;9.18;;;5.75;;
5981;SDS011;3018;48.730;9.336;2023-01-19T15:00:49;5.85;;;5.35;;
5981;SDS011;3018;48.730;9.336;2023-01-19T15:03:19;11.27;;;6.30;;
5981;SDS011;3018;48.730;9.336;2023-01-19T15:05:46;6.40;;;5.72;;
5981;SDS011;3018;48.730;9.336;2023-01-19T15:08:14;7.05;;;5.95;;
5981;SDS011;3018;48.730;9.336;2023-01-19T15:10:40;8.88;;;5.82;;
5981;SDS011;3018;48.730;9.336;2023-01-19T15:13:09;9.32;;;5.43;;
5981;SDS011;3018;48.730;9.336;2023-01-19T15:15:36;6.53;;;5.93;;
5981;SDS011;3018;48.730;9.336;2023-01-19T15:18:02;9.57;;;5.43;;
5981;SDS011;3018;48.730;9.336;2023-01-19T15:20:29;5.82;;;5.10;;
5981;SDS011;3018;48.730;9.336;2023-01-19T15:22:56;6.72;;;5.50;;
5981;SDS011;3018;48.730;9.336;2023-01-19T15:25:22;8.20;;;5.50;;